Historique des stations

Station météo de Boisseaux

Altitude de la station : 132 m







Données météorologiques pour le 18/08/2022
Date
Heure
Températures Humidité Point de rosée Vitesse
du vent
Direction Rafales Windchill Pression Pluviométrie
Cumul
Date
Heure
Températures Humidité Point de rosée Vitesse
du vent
Direction Rafales Windchill Pression Pluviométrie
Cumul
18/08/2022 23:48-93 %-----1016 hPa-
18/08/2022 23:45-93 %-----1016 hPa-
18/08/2022 23:33-93 %-----1016 hPa-
18/08/2022 23:30-93 %-----1016 hPa-
18/08/2022 23:18-93 %-----1016 hPa-
18/08/2022 23:15-93 %-----1016 hPa-
18/08/2022 23:03-93 %-----1016 hPa-
18/08/2022 23:00-93 %-----1016 hPa-
18/08/2022 22:48-93 %-----1016 hPa-
18/08/2022 22:45-93 %-----1016 hPa-
18/08/2022 22:33-93 %-----1016 hPa-
18/08/2022 22:30-93 %-----1016 hPa-
18/08/2022 22:18-93 %-----1016 hPa-
18/08/2022 22:15-93 %-----1016 hPa-
18/08/2022 22:03-93 %-----1016 hPa-
18/08/2022 22:00-93 %-----1015 hPa-
18/08/2022 21:48-93 %-----1015 hPa-
18/08/2022 21:45-93 %-----1015 hPa-
18/08/2022 21:33-93 %-----1015 hPa-
18/08/2022 21:31-93 %-----1015 hPa-
18/08/2022 21:1923.6 °C60 %15.6 °C2 km/hONO6 km/h23.9 1015 hPa-
18/08/2022 21:1623.6 °C60 %15.6 °C2 km/hONO16 km/h23.9 1015 hPa-
18/08/2022 21:0423.8 °C58 %15.0 °C2 km/hONO6 km/h23.9 1015 hPa-
18/08/2022 21:0123.9 °C58 %15.0 °C-OSO16 km/h23.9 1015 hPa-
18/08/2022 20:4924.5 °C56 %15.0 °C3 km/hONO8 km/h24.4 1015 hPa-
18/08/2022 20:4624.6 °C55 %15.0 °C5 km/hONO16 km/h24.4 1015 hPa-
18/08/2022 20:3425.2 °C53 %15.0 °C2 km/hO8 km/h25.0 1014 hPa-
18/08/2022 20:3125.3 °C53 %15.0 °C3 km/hONO16 km/h25.6 1014 hPa-
18/08/2022 20:1925.7 °C52 %15.0 °C5 km/hONO10 km/h25.6 1014 hPa-
18/08/2022 20:1625.8 °C51 %15.0 °C6 km/hNO16 km/h25.6 1014 hPa-
18/08/2022 20:0426.1 °C51 %15.0 °C5 km/hO6 km/h26.1 1014 hPa-
18/08/2022 20:0126.2 °C51 %15.0 °C2 km/hSO16 km/h26.1 1014 hPa-
18/08/2022 19:4926.6 °C49 %15.0 °C5 km/hO11 km/h26.7 1014 hPa-
18/08/2022 19:4626.6 °C49 %15.0 °C2 km/hO16 km/h26.7 1014 hPa-
18/08/2022 19:3427.1 °C48 %15.0 °C2 km/hOSO14 km/h27.2 1014 hPa-
18/08/2022 19:3127.2 °C47 %15.0 °C-ONO16 km/h27.2 1014 hPa-
18/08/2022 19:1928.1 °C46 %15.6 °C2 km/hOSO10 km/h28.3 1014 hPa-
18/08/2022 19:1628.1 °C45 %15.0 °C5 km/hONO16 km/h28.3 1014 hPa-
18/08/2022 19:0328.3 °C46 %15.6 °C2 km/hONO11 km/h28.3 1014 hPa-
18/08/2022 19:0128.3 °C46 %15.6 °C3 km/hONO16 km/h28.3 1014 hPa-
18/08/2022 18:4928.6 °C44 %15.0 °C8 km/hOSO13 km/h28.9 1014 hPa-
18/08/2022 18:4628.6 °C45 %15.6 °C13 km/hONO16 km/h28.3 1014 hPa-
18/08/2022 18:3428.7 °C44 %15.0 °C3 km/hONO11 km/h28.9 1014 hPa-
18/08/2022 18:3128.4 °C45 %15.6 °C-OSO16 km/h28.3 1014 hPa-
18/08/2022 18:1827.8 °C47 %15.6 °C3 km/hOSO11 km/h27.8 1014 hPa-
18/08/2022 18:1527.8 °C47 %15.6 °C5 km/hNO16 km/h27.8 1014 hPa-
18/08/2022 18:0428.2 °C45 %15.0 °C-NNO13 km/h28.3 1014 hPa-
18/08/2022 18:0028.6 °C45 %15.6 °C6 km/hNO16 km/h28.3 1014 hPa-
18/08/2022 17:4928.5 °C45 %15.6 °C6 km/hNO14 km/h28.3 1014 hPa-
18/08/2022 17:4528.4 °C46 %15.6 °C-OSO16 km/h28.3 1014 hPa-
18/08/2022 17:3428.3 °C44 %15.0 °C2 km/hOSO11 km/h28.3 1014 hPa-
18/08/2022 17:3028.5 °C44 %15.0 °C10 km/hONO16 km/h28.3 1014 hPa-
18/08/2022 17:2028.7 °C44 %15.0 °C6 km/hOSO10 km/h28.9 1014 hPa-
18/08/2022 17:1528.7 °C43 %15.0 °C5 km/hOSO14 km/h28.9 1014 hPa-
18/08/2022 17:0429.0 °C42 %15.0 °C5 km/hNO8 km/h28.9 1014 hPa-
18/08/2022 17:0028.9 °C43 %15.0 °C5 km/hO14 km/h28.9 1014 hPa-
18/08/2022 16:4928.7 °C43 %15.0 °C3 km/hO10 km/h28.9 1014 hPa-
18/08/2022 16:4528.6 °C46 %15.6 °C3 km/hONO14 km/h28.3 1014 hPa-
18/08/2022 16:3428.2 °C46 %15.6 °C2 km/hO13 km/h28.3 1014 hPa-
18/08/2022 16:3028.5 °C44 %15.0 °C3 km/hO14 km/h28.3 1014 hPa-
18/08/2022 16:1928.2 °C46 %15.6 °C6 km/hNNO11 km/h28.3 1014 hPa-
18/08/2022 16:1528.2 °C46 %15.6 °C-OSO13 km/h28.3 1014 hPa-
18/08/2022 16:0427.7 °C48 %15.6 °C3 km/hO8 km/h27.8 1014 hPa-
18/08/2022 16:0027.8 °C47 %15.6 °C2 km/hOSO13 km/h27.8 1014 hPa-
18/08/2022 15:5027.9 °C48 %16.1 °C2 km/hO10 km/h27.8 1014 hPa-
18/08/2022 15:4527.6 °C47 %15.0 °C2 km/hO13 km/h27.8 1014 hPa-
18/08/2022 15:3527.6 °C49 %16.1 °C2 km/hE14 km/h27.8 1014 hPa-
18/08/2022 15:3028.4 °C47 %16.1 °C3 km/hNO13 km/h28.3 1014 hPa-
18/08/2022 15:2027.8 °C48 %15.6 °C3 km/hOSO5 km/h27.8 1014 hPa-
18/08/2022 15:1628.0 °C49 %16.1 °C3 km/hNNO13 km/h27.8 1014 hPa-
18/08/2022 15:0527.8 °C49 %16.1 °C2 km/hNO11 km/h27.8 1014 hPa-
18/08/2022 15:0127.9 °C48 %16.1 °C2 km/hO13 km/h27.8 1014 hPa-
18/08/2022 14:5028.6 °C45 %15.6 °C6 km/hO11 km/h28.3 1014 hPa-
18/08/2022 14:4628.6 °C46 %15.6 °C2 km/hONO13 km/h28.3 1014 hPa-
18/08/2022 14:3528.1 °C47 %15.6 °C-N6 km/h28.3 1015 hPa-
18/08/2022 14:3127.9 °C48 %16.1 °C3 km/hNO13 km/h27.8 1015 hPa-
18/08/2022 14:2027.1 °C49 %15.6 °C2 km/hONO10 km/h27.2 1015 hPa-
18/08/2022 14:1626.8 °C50 %15.6 °C5 km/hN13 km/h26.7 1015 hPa-
18/08/2022 14:0527.6 °C49 %16.1 °C2 km/hO5 km/h27.8 1015 hPa-
18/08/2022 14:0127.4 °C50 %16.1 °C2 km/hO13 km/h27.2 1015 hPa-
18/08/2022 13:5027.2 °C51 %16.1 °C2 km/hSO8 km/h27.2 1015 hPa-
18/08/2022 13:4626.9 °C52 %16.1 °C5 km/hONO13 km/h27.2 1015 hPa-
18/08/2022 13:3526.8 °C52 %16.1 °C2 km/hONO6 km/h26.7 1015 hPa-
18/08/2022 13:3126.7 °C53 %16.1 °C3 km/hOSO13 km/h26.7 1015 hPa-
18/08/2022 13:1926.8 °C54 %16.7 °C-NNO11 km/h26.7 1014 hPa-
18/08/2022 13:1526.8 °C55 %17.2 °C2 km/hO13 km/h26.7 1014 hPa-
18/08/2022 13:0426.3 °C55 %16.7 °C2 km/hSO8 km/h26.1 1014 hPa-
18/08/2022 13:0026.7 °C55 %16.7 °C5 km/hO13 km/h26.7 1014 hPa-
18/08/2022 12:4926.2 °C58 %17.2 °C-SO13 km/h26.1 1014 hPa-
18/08/2022 12:4526.1 °C56 %16.7 °C5 km/hO13 km/h26.1 1014 hPa-
18/08/2022 12:3525.8 °C58 %16.7 °C-ONO8 km/h25.6 1014 hPa-
18/08/2022 12:3025.8 °C60 %17.2 °C3 km/hN10 km/h25.6 1014 hPa-
18/08/2022 12:2025.7 °C59 %17.2 °C-ONO8 km/h25.6 1015 hPa-
18/08/2022 12:1525.7 °C61 %17.8 °C3 km/hOSO10 km/h25.6 1015 hPa-
18/08/2022 12:0525.5 °C58 %16.7 °C3 km/hONO8 km/h25.6 1015 hPa-
18/08/2022 12:0025.4 °C60 %17.2 °C-SO10 km/h25.6 1015 hPa-
18/08/2022 11:5025.5 °C60 %17.2 °C-OSO8 km/h25.6 1015 hPa-
18/08/2022 11:4525.4 °C61 %17.2 °C-OSO6 km/h25.6 1015 hPa-
18/08/2022 11:3525.2 °C62 %17.2 °C-OSO3 km/h25.0 1015 hPa-
18/08/2022 11:3024.7 °C65 %17.8 °C-NNO6 km/h25.0 1015 hPa-
18/08/2022 11:2024.8 °C64 %17.8 °C2 km/hONO5 km/h25.0 1015 hPa-
18/08/2022 11:1524.4 °C67 %17.8 °C-SO6 km/h24.4 1015 hPa-
18/08/2022 11:0523.8 °C68 %17.8 °C2 km/hE3 km/h23.9 1015 hPa-
18/08/2022 11:0023.7 °C68 %17.2 °C-O6 km/h23.9 1015 hPa-
18/08/2022 10:5023.3 °C68 %17.2 °C2 km/hNE5 km/h23.3 1015 hPa-
18/08/2022 10:4523.3 °C69 %17.2 °C-N6 km/h23.3 1015 hPa-
18/08/2022 10:3523.6 °C70 %17.8 °C-NO2 km/h23.3 1015 hPa-
18/08/2022 10:3023.3 °C71 %17.8 °C-SSO6 km/h23.3 1015 hPa-
18/08/2022 10:2022.6 °C73 %17.2 °C-ENE3 km/h22.8 1014 hPa-
18/08/2022 10:1522.2 °C74 %17.2 °C-ESE6 km/h22.2 1014 hPa-
18/08/2022 10:0821.6 °C77 %17.2 °C-SSO2 km/h21.7 1015 hPa-
18/08/2022 10:0121.1 °C78 %17.2 °C2 km/hSSO6 km/h21.1 1015 hPa-
18/08/2022 09:5019.4 °C81 %16.1 °C-NNE2 km/h19.4 1015 hPa-
18/08/2022 09:4519.1 °C82 %16.1 °C-SE6 km/h18.9 1015 hPa-
18/08/2022 09:3518.1 °C86 %15.6 °C-NNE3 km/h18.3 1015 hPa-
18/08/2022 09:3017.4 °C88 %15.6 °C3 km/hN6 km/h17.2 1015 hPa-
18/08/2022 09:1916.3 °C89 %14.4 °C-N3 km/h16.1 1015 hPa-
18/08/2022 09:1516.2 °C90 %14.4 °C2 km/hONO6 km/h16.1 1015 hPa-
18/08/2022 09:0515.7 °C90 %13.9 °C-O2 km/h15.6 1014 hPa-
18/08/2022 09:0115.7 °C91 %14.4 °C-N6 km/h15.6 1014 hPa-
18/08/2022 08:5015.4 °C91 %13.9 °C-O3 km/h15.6 1014 hPa-
18/08/2022 08:4615.4 °C91 %13.9 °C-O6 km/h15.6 1014 hPa-
18/08/2022 08:3515.3 °C91 %13.9 °C-ONO2 km/h15.6 1014 hPa-
18/08/2022 08:3115.3 °C91 %13.9 °C-O6 km/h15.6 1014 hPa-
18/08/2022 08:1915.1 °C91 %13.9 °C-ONO2 km/h15.0 1014 hPa-
18/08/2022 08:1615.0 °C91 %13.3 °C-ONO6 km/h15.0 1014 hPa-
18/08/2022 08:0414.8 °C92 %13.3 °C2 km/hONO2 km/h15.0 1014 hPa-
18/08/2022 08:0114.8 °C92 %13.3 °C2 km/hONO6 km/h15.0 1014 hPa-
18/08/2022 07:4914.3 °C92 %13.3 °C-ONO5 km/h14.4 1014 hPa-
18/08/2022 07:4614.2 °C92 %12.8 °C-O6 km/h14.4 1014 hPa-
18/08/2022 07:3414.0 °C93 %12.8 °C2 km/hONO3 km/h13.9 1014 hPa-
18/08/2022 07:3113.9 °C92 %12.8 °C-O6 km/h13.9 1014 hPa-
18/08/2022 07:1913.9 °C92 %12.8 °C3 km/hONO5 km/h13.9 1014 hPa-
18/08/2022 07:1614.0 °C92 %12.8 °C-ONO6 km/h13.9 1014 hPa-
18/08/2022 07:0414.1 °C92 %12.8 °C-NO2 km/h13.9 1013 hPa-
18/08/2022 07:0114.2 °C92 %12.8 °C2 km/hONO6 km/h14.4 1013 hPa-
18/08/2022 06:4914.1 °C93 %12.8 °C-O2 km/h13.9 1013 hPa-
18/08/2022 06:4614.1 °C93 %12.8 °C-O6 km/h13.9 1013 hPa-
18/08/2022 06:3414.1 °C92 %12.8 °C-O3 km/h13.9 1013 hPa-
18/08/2022 06:3114.1 °C92 %12.8 °C-O6 km/h13.9 1013 hPa-
18/08/2022 06:1914.1 °C93 %12.8 °C-ONO3 km/h13.9 1014 hPa-
18/08/2022 06:1614.1 °C93 %12.8 °C-O6 km/h13.9 1014 hPa-
18/08/2022 06:0414.1 °C92 %12.8 °C-O2 km/h13.9 1013 hPa-
18/08/2022 06:0114.2 °C92 %12.8 °C-O6 km/h14.4 1014 hPa-
18/08/2022 05:4814.3 °C92 %12.8 °C-O5 km/h14.4 1014 hPa-
18/08/2022 05:4514.3 °C92 %12.8 °C-ONO6 km/h14.4 1014 hPa-
18/08/2022 05:3314.1 °C92 %12.8 °C-ONO3 km/h13.9 1014 hPa-
18/08/2022 05:3014.2 °C92 %12.8 °C-OSO6 km/h14.4 1014 hPa-
18/08/2022 05:1814.3 °C91 %12.8 °C-ONO3 km/h14.4 1014 hPa-
18/08/2022 05:1514.3 °C91 %12.8 °C-ONO6 km/h14.4 1014 hPa-
18/08/2022 05:0314.4 °C91 %12.8 °C2 km/hSO3 km/h14.4 1014 hPa-
18/08/2022 05:0014.5 °C91 %13.3 °C2 km/hNNO6 km/h14.4 1014 hPa-
18/08/2022 04:4814.6 °C90 %12.8 °C-ONO3 km/h14.4 1013 hPa-
18/08/2022 04:4514.6 °C89 %12.8 °C-ONO6 km/h14.4 1013 hPa-
18/08/2022 04:3314.8 °C88 %12.8 °C5 km/hNO6 km/h15.0 1013 hPa-
18/08/2022 04:3014.8 °C87 %12.8 °C-O6 km/h15.0 1013 hPa-
18/08/2022 04:1815.7 °C85 %13.3 °C-O2 km/h15.6 1013 hPa-
18/08/2022 04:1515.7 °C86 %13.3 °C-O6 km/h15.6 1013 hPa-
18/08/2022 04:0315.7 °C85 %13.3 °C-O2 km/h15.6 1013 hPa-
18/08/2022 04:0015.7 °C85 %13.3 °C-O6 km/h15.6 1013 hPa-
18/08/2022 03:4815.6 °C85 %13.3 °C-O2 km/h15.6 1014 hPa-
18/08/2022 03:4515.6 °C85 %13.3 °C-O6 km/h15.6 1014 hPa-
18/08/2022 03:3315.8 °C84 %13.3 °C-OSO2 km/h15.6 1014 hPa-
18/08/2022 03:3015.8 °C85 %13.3 °C-OSO6 km/h15.6 1014 hPa-
18/08/2022 03:1815.9 °C84 %13.3 °C-ONO2 km/h16.1 1014 hPa-
18/08/2022 03:1516.0 °C84 %13.3 °C-ONO6 km/h16.1 1014 hPa-
18/08/2022 03:0315.6 °C85 %13.3 °C2 km/hONO2 km/h15.6 1014 hPa-
18/08/2022 03:0015.4 °C85 %12.8 °C-ONO6 km/h15.6 1014 hPa-
18/08/2022 02:4814.8 °C85 %12.2 °C-ENE2 km/h15.0 1014 hPa-
18/08/2022 02:4514.9 °C84 %12.2 °C-ENE6 km/h15.0 1014 hPa-
18/08/2022 02:3315.4 °C85 %12.8 °C-NE2 km/h15.6 1014 hPa-
18/08/2022 02:2915.4 °C85 %12.8 °C-NE6 km/h15.6 1014 hPa-
18/08/2022 02:1815.2 °C85 %12.8 °C-NE2 km/h15.0 1013 hPa-
18/08/2022 02:1515.2 °C85 %12.8 °C-NE6 km/h15.0 1013 hPa-
18/08/2022 02:0315.8 °C83 %12.8 °C-NE6 km/h15.6 1013 hPa-
18/08/2022 02:0016.1 °C82 %12.8 °C2 km/hNE6 km/h16.1 1013 hPa-
18/08/2022 01:4816.6 °C82 %13.3 °C-OSO2 km/h16.7 1013 hPa-
18/08/2022 01:4516.7 °C82 %13.3 °C-OSO5 km/h16.7 1013 hPa-
18/08/2022 01:3316.8 °C81 %13.3 °C-O2 km/h16.7 1013 hPa-
18/08/2022 01:3016.8 °C81 %13.3 °C-O5 km/h16.7 1013 hPa-
18/08/2022 01:1916.3 °C84 %13.9 °C-SO2 km/h16.1 1013 hPa-
18/08/2022 01:1516.1 °C85 %13.3 °C-SO2 km/h16.1 1013 hPa-
18/08/2022 01:0315.7 °C84 %13.3 °C---15.6 1013 hPa-
18/08/2022 01:0015.7 °C84 %13.3 °C-SE2 km/h15.6 1013 hPa-
18/08/2022 00:4815.9 °C81 %12.8 °C-SE2 km/h16.1 1013 hPa-
18/08/2022 00:4515.9 °C81 %12.8 °C-SE2 km/h16.1 1013 hPa-
18/08/2022 00:3316.3 °C82 %13.3 °C---16.1 1013 hPa-
18/08/2022 00:3016.5 °C81 %13.3 °C---16.7 1013 hPa-
18/08/2022 00:1917.1 °C79 %13.3 °C---17.2 1013 hPa-
18/08/2022 00:1517.3 °C79 %13.9 °C---17.2 1013 hPa-
18/08/2022 00:0417.9 °C77 %13.9 °C---17.8 1013 hPa-
18/08/2022 00:0118.1 °C78 %14.4 °C---18.3 1013 hPa-


Minima :

Température : 13.9 °C
Humidité : 42 %
Point de rosée : 12.2 °C
Vent moyen : 2 km/h
Windchill : 13.9
Pression atm. : 1013 hPa
Maxima :

Température : 29.0 °C
Humidité : 93 %
Point de rosée : 17.8 °C
Vent moyen : 13 km/h
Windchill : 28.9
Pression atm. : 1016 hPa
Rafales max : 16 km/h
Cumul de pluie sur 24H : 0 mm

Boisseaux est une commune du département Loiret (45).
La station météorologique du réseau de l'association la plus proche de Boisseaux est celle de Bellegarde



Icône Facebook Association Météo Centre Icône Twitter Association Météo Centre Icône Chaîne Youtube Association Météo Centre Icône contact Association Météo Centre Icône Insta Association Météo Centre